Aérodrome :
LOGIN :

S'inscrire | Disclaimer

   EN    FR    IT 

 










Légende :    VFR   VFR Marginal   IFR   IFR Intensif   IFR Très Intensif
Visi : 
Plafond : 
>= 8 km
>= 3000ft
5 à 8 km
1000 à 3000 ft
1500m à 5 km
500 à 1000 ft
800 à 1500m
200 à 500 ft
< 800m
< 200 ft
Symboles :   Orages  Brouillard  Fortes neiges  Fortes précipitations  Vent > 20 kt
SIGMETs :   Divers  Orages  Givrage  Turbulence  Onde Orograph.  Cendres Volcan.






- Altitude de l'aérodrome : 200 ft


EBBL - Klein Brogel AB

DERNIER METAR :
  • 231525Z AUTO 24008KT 9999 FEW040/// BKN096/// 20/12 Q1015 BLU

METARs EXPIRÉS :
  • 231455Z AUTO 24006KT 9999 FEW038/// BKN095/// 20/13 Q1015 BLU
  • 231425Z AUTO 24009KT 9999 FEW043/// BKN095/// 20/12 Q1015 BLU
  • 231355Z AUTO 22006KT 9999 FEW036/// BKN097/// 20/12 Q1015 BLU
  • 231334Z 25008KT 9999 FEW030 SCT070 20/11 Q1015 BLU BLU
  • 231255Z 22005KT 9999 -SHRA SCT030 SCT056 18/12 Q1015 BLU BLU TEMPO WHT
  • 231225Z 22004KT 9999 SCT030 SCT080 20/14 Q1015 BLU BLU TEMPO WHT
  • 231155Z 18003KT 9999 SCT030 BKN080 16/12 Q1015 BLU BLU TEMPO WHT
  • 231142Z 24007KT 9999 -SHRA FEW028 BKN070 16/13 Q1015 BLU BLU TEMPO WHT
  • 231133Z 27006KT 7000 -SHRA SCT028 BKN070 17/12 Q1015 WHT BLU TEMPO WHT
  • 231103Z 24006KT 9999 SCT028 BKN045 18/12 Q1015 BLU BLU TEMPO WHT

TAF TAF EBBL
Valide du 23 à 13h jusqu'au 23 à 22h UTC


231141Z 2313/2322 24008KT 9999 SCT030
TEMPO 2313/2319 24008G18KT 6000 -SHRA SCT025TCU
TEMPO 2313/2318 24010G20KT 4000 -TSRA SCT020CB
BECMG 2318/2320 VRB03KT



MET'MAP, la Météo Aéronautique d'un coup d'oeil ! - Copyright ORBIFLY Décembre 2007 - Disclaimer

ORBIFLY MET'MAP TEAM :

Programmation & Développement : Alexandra Zaïnal
Sur une idée originale de : Baudouin d'Aumeries
Soutien technique & logistique : Manuel Goepfert
Assistance : Marc-Olivier Méhu




SOURCES & CREDITS :

   NOAA